createdAt,value
2023-02-11T00:02:19.579Z,28.08
2023-02-11T00:04:49.218Z,42.40
2023-02-11T00:07:21.097Z,26.85
2023-02-11T00:09:51.445Z,41.63
2023-02-11T00:12:21.726Z,36.33
2023-02-11T00:14:51.998Z,33.13
2023-02-11T00:17:22.747Z,23.73
2023-02-11T00:19:52.857Z,36.78
2023-02-11T00:22:24.156Z,25.10
2023-02-11T00:24:57.241Z,27.98
2023-02-11T00:27:26.977Z,30.80
2023-02-11T00:29:57.052Z,46.08
2023-02-11T00:32:26.786Z,30.80
2023-02-11T00:34:56.969Z,31.52
2023-02-11T00:37:28.813Z,30.80
2023-02-11T00:39:58.510Z,30.20
2023-02-11T00:42:27.826Z,36.03
2023-02-11T00:44:58.082Z,29.73
2023-02-11T00:47:28.402Z,25.95
2023-02-11T00:49:58.532Z,18.05
2023-02-11T00:52:31.888Z,25.45
2023-02-11T00:55:01.775Z,35.67
2023-02-11T00:57:31.236Z,32.70
2023-02-11T01:00:01.340Z,44.95
2023-02-11T01:02:31.787Z,35.80
2023-02-11T01:05:02.408Z,29.33
2023-02-11T01:07:33.764Z,31.13
2023-02-11T01:10:04.450Z,43.00
2023-02-11T01:12:37.593Z,28.67
2023-02-11T01:15:10.940Z,30.10
2023-02-11T01:17:41.384Z,27.25
2023-02-11T01:20:16.788Z,25.58
2023-02-11T01:22:48.373Z,22.02
2023-02-11T01:25:19.222Z,31.65
2023-02-11T01:27:49.745Z,36.42
2023-02-11T01:30:19.615Z,34.60
2023-02-11T01:32:50.333Z,32.88
2023-02-11T01:35:21.030Z,16.13
2023-02-11T01:37:52.866Z,30.98
2023-02-11T01:40:22.957Z,26.38
2023-02-11T01:42:53.008Z,20.88
2023-02-11T01:46:00.006Z,36.70
2023-02-11T01:48:34.077Z,29.42
2023-02-11T01:51:09.051Z,20.80
2023-02-11T01:54:00.714Z,26.58
2023-02-11T01:56:49.596Z,30.80
2023-02-11T01:59:23.911Z,27.05
2023-02-11T02:02:00.332Z,30.13
2023-02-11T02:04:43.642Z,30.42
2023-02-11T02:07:19.025Z,22.75
2023-02-11T02:09:57.037Z,30.20
2023-02-11T02:12:27.222Z,39.33
2023-02-11T02:15:20.317Z,31.83
2023-02-11T02:17:58.425Z,30.80
2023-02-11T02:20:51.834Z,23.15
2023-02-11T02:23:42.129Z,22.05
2023-02-11T02:26:55.464Z,24.58
2023-02-11T02:30:06.280Z,37.92
2023-02-11T02:33:20.587Z,27.73
2023-02-11T02:35:59.707Z,27.58
2023-02-11T02:38:35.303Z,39.00
2023-02-11T02:41:08.819Z,28.25
2023-02-11T02:43:42.048Z,22.38
2023-02-11T02:46:16.782Z,32.50
2023-02-11T02:48:50.637Z,25.58
2023-02-11T02:51:43.968Z,22.02
2023-02-11T02:54:37.172Z,25.23
2023-02-11T02:57:20.624Z,35.67
2023-02-11T03:00:05.059Z,27.73
2023-02-11T03:02:43.936Z,44.80
2023-02-11T03:05:20.182Z,34.50
2023-02-11T03:07:56.194Z,26.77
2023-02-11T03:10:30.457Z,29.33
2023-02-11T03:13:01.388Z,28.17
2023-02-11T03:15:34.308Z,24.98
2023-02-11T03:18:07.038Z,23.40
2023-02-11T03:20:43.448Z,32.45
2023-02-11T03:23:18.475Z,28.35
2023-02-11T03:25:53.663Z,32.10
2023-02-11T03:28:31.050Z,23.65
2023-02-11T03:31:11.547Z,30.60
2023-02-11T03:33:46.602Z,29.17
2023-02-11T03:36:23.110Z,27.42
2023-02-11T03:38:58.635Z,29.75
2023-02-11T03:41:28.336Z,25.42
2023-02-11T03:43:59.792Z,36.65
2023-02-11T03:46:32.650Z,36.95
2023-02-11T03:49:06.277Z,28.40
2023-02-11T03:51:38.550Z,32.63
2023-02-11T03:54:13.023Z,30.92
2023-02-11T03:56:50.657Z,37.03
2023-02-11T03:59:20.864Z,42.90
2023-02-11T04:01:50.983Z,25.38
2023-02-11T04:04:24.423Z,47.53
2023-02-11T04:06:55.767Z,30.67
2023-02-11T04:09:25.516Z,31.70
2023-02-11T04:11:55.697Z,32.17
2023-02-11T04:14:25.408Z,31.10
2023-02-11T04:16:58.175Z,35.25
2023-02-11T04:19:28.114Z,26.45
2023-02-11T04:21:59.486Z,34.50
2023-02-11T04:24:29.185Z,36.40
2023-02-11T04:26:59.498Z,42.78
2023-02-11T04:29:29.391Z,34.58
2023-02-11T04:32:01.325Z,31.77
2023-02-11T04:34:31.517Z,41.45
2023-02-11T04:37:02.805Z,34.25
2023-02-11T04:39:32.560Z,42.17
2023-02-11T04:42:02.658Z,26.48
2023-02-11T04:44:32.717Z,35.75
2023-02-11T04:47:02.795Z,24.48
2023-02-11T04:49:32.922Z,38.80
2023-02-11T04:52:04.604Z,37.45
2023-02-11T04:54:34.402Z,40.80
2023-02-11T04:57:05.389Z,46.45
2023-02-11T04:59:35.447Z,32.63
2023-02-11T05:02:05.385Z,65.18
2023-02-11T05:04:37.357Z,32.37
2023-02-11T05:07:08.258Z,37.47
2023-02-11T05:09:37.789Z,38.85
2023-02-11T05:12:10.840Z,37.23
2023-02-11T05:14:41.361Z,36.65
2023-02-11T05:17:11.517Z,40.92
2023-02-11T05:19:41.122Z,39.28
2023-02-11T05:22:12.229Z,42.33
2023-02-11T05:24:42.218Z,39.42
2023-02-11T05:27:12.384Z,44.80
2023-02-11T05:29:42.317Z,46.03
2023-02-11T05:32:12.700Z,43.40
2023-02-11T05:34:43.127Z,43.08
2023-02-11T05:37:14.100Z,39.15
2023-02-11T05:39:44.003Z,31.88
2023-02-11T05:42:15.963Z,41.38
2023-02-11T05:44:45.559Z,39.72
2023-02-11T05:47:17.533Z,47.28
2023-02-11T05:49:47.140Z,41.70
2023-02-11T05:52:18.222Z,41.88
2023-02-11T05:54:48.392Z,31.27
2023-02-11T05:57:18.617Z,40.47
2023-02-11T05:59:50.524Z,37.65
2023-02-11T06:02:20.506Z,44.80
2023-02-11T06:04:51.028Z,41.25
2023-02-11T06:07:22.195Z,39.78
2023-02-11T06:09:51.476Z,43.13
2023-02-11T06:12:20.804Z,45.55
2023-02-11T06:14:50.486Z,41.05
2023-02-11T06:17:20.094Z,38.83
2023-02-11T06:19:49.395Z,43.10
2023-02-11T06:22:18.633Z,43.67
2023-02-11T06:25:00.919Z,43.30
2023-02-11T06:27:31.552Z,44.15
2023-02-11T06:30:04.057Z,41.80
2023-02-11T06:32:43.964Z,45.90
2023-02-11T06:35:16.842Z,49.63
2023-02-11T06:37:48.066Z,47.00
2023-02-11T06:40:19.774Z,38.92
2023-02-11T06:42:49.793Z,52.97
2023-02-11T06:45:24.657Z,38.35
2023-02-11T06:47:54.452Z,52.03
2023-02-11T06:50:24.670Z,41.30
2023-02-11T06:52:53.648Z,45.15
2023-02-11T06:55:24.992Z,47.08
2023-02-11T06:57:55.039Z,51.83
2023-02-11T07:00:24.804Z,49.08
2023-02-11T07:02:54.784Z,51.92
2023-02-11T07:05:24.727Z,57.33
2023-02-11T07:07:57.093Z,48.30
2023-02-11T07:10:28.741Z,48.78
2023-02-11T07:12:58.956Z,43.42
2023-02-11T07:15:29.768Z,48.95
2023-02-11T07:18:01.071Z,47.28
2023-02-11T07:20:32.112Z,58.20
2023-02-11T07:23:03.932Z,56.50
2023-02-11T07:25:38.074Z,54.53
2023-02-11T07:28:09.555Z,64.78
2023-02-11T07:30:40.182Z,66.87
2023-02-11T07:33:11.277Z,61.80
2023-02-11T07:35:42.780Z,54.30
2023-02-11T07:38:13.933Z,54.33
2023-02-11T07:40:47.064Z,47.80
2023-02-11T07:43:18.152Z,57.42
2023-02-11T07:45:48.981Z,52.92
2023-02-11T07:48:20.841Z,50.78
2023-02-11T07:50:52.137Z,51.03
2023-02-11T07:53:23.126Z,54.42
2023-02-11T07:55:55.438Z,54.70
2023-02-11T07:58:26.170Z,54.70
2023-02-11T08:00:57.500Z,50.90
2023-02-11T08:03:28.045Z,42.83
2023-02-11T08:05:59.321Z,42.15
2023-02-11T08:08:30.193Z,53.92
2023-02-11T08:11:10.294Z,45.17
2023-02-11T08:13:41.642Z,49.45
2023-02-11T08:16:19.348Z,52.90
2023-02-11T08:18:51.358Z,48.20
2023-02-11T08:21:23.079Z,52.53
2023-02-11T08:23:53.849Z,48.65
2023-02-11T08:26:29.351Z,45.42
2023-02-11T08:29:01.423Z,49.70
2023-02-11T08:31:34.510Z,49.92
2023-02-11T08:36:37.901Z,48.60
2023-02-11T08:41:53.895Z,51.90
2023-02-11T08:44:26.801Z,41.05
2023-02-11T08:47:00.554Z,45.03
2023-02-11T08:49:33.092Z,44.83
2023-02-11T08:52:08.270Z,41.20
2023-02-11T08:54:39.858Z,42.63
2023-02-11T08:57:13.512Z,49.92
2023-02-11T08:59:45.473Z,43.03
2023-02-11T09:02:17.616Z,48.10
2023-02-11T09:04:49.909Z,39.72
2023-02-11T09:07:21.363Z,47.10
2023-02-11T09:09:54.926Z,38.65
2023-02-11T09:12:28.004Z,33.63
2023-02-11T09:14:59.571Z,39.65
2023-02-11T09:17:30.576Z,42.17
2023-02-11T09:20:02.592Z,45.25
2023-02-11T09:22:36.468Z,36.65
2023-02-11T09:25:07.510Z,35.42
2023-02-11T09:27:40.179Z,35.90
2023-02-11T09:30:10.971Z,36.78
2023-02-11T09:32:41.507Z,37.80
2023-02-11T09:35:12.781Z,30.80
2023-02-11T09:37:44.575Z,30.67
2023-02-11T09:40:16.537Z,26.63
2023-02-11T09:42:53.379Z,30.52
2023-02-11T09:45:26.195Z,29.05
2023-02-11T09:47:59.209Z,28.63
2023-02-11T09:50:32.364Z,26.70
2023-02-11T09:55:38.098Z,24.35
2023-02-11T09:58:15.012Z,21.70
2023-02-11T10:00:50.082Z,24.30
2023-02-11T10:03:43.453Z,25.08
2023-02-11T10:06:28.306Z,23.25
2023-02-11T10:09:07.122Z,29.42
2023-02-11T10:11:49.307Z,24.50
2023-02-11T10:14:37.708Z,21.02
2023-02-11T10:17:19.277Z,21.80
2023-02-11T10:20:04.513Z,20.25
2023-02-11T10:22:39.090Z,19.77
2023-02-11T10:25:21.602Z,21.15
2023-02-11T10:27:53.253Z,24.00
2023-02-11T10:30:31.607Z,16.92
2023-02-11T10:33:05.762Z,16.65
2023-02-11T10:35:35.669Z,20.52
2023-02-11T10:38:06.118Z,22.42
2023-02-11T10:40:36.042Z,19.13
2023-02-11T10:43:09.001Z,17.15
2023-02-11T10:45:44.758Z,20.20
2023-02-11T10:48:40.601Z,17.77
2023-02-11T10:51:18.263Z,21.27
2023-02-11T10:53:49.597Z,19.52
2023-02-11T10:56:27.760Z,18.38
2023-02-11T10:59:01.261Z,14.75
2023-02-11T11:01:48.200Z,18.90
2023-02-11T11:04:37.126Z,13.38
2023-02-11T11:07:18.531Z,15.82
2023-02-11T11:09:53.480Z,18.67
2023-02-11T11:12:28.981Z,16.75
2023-02-11T11:15:00.749Z,23.60
2023-02-11T11:17:31.778Z,18.92
2023-02-11T11:20:21.332Z,15.95
2023-02-11T11:22:53.192Z,14.57
2023-02-11T11:25:25.924Z,17.52
2023-02-11T11:27:59.360Z,10.52
2023-02-11T11:30:35.946Z,14.18
2023-02-11T11:33:20.765Z,12.77
2023-02-11T11:36:02.793Z,13.90
2023-02-11T11:38:34.385Z,10.88
2023-02-11T11:41:31.800Z,10.73
2023-02-11T11:44:04.606Z,10.85
2023-02-11T11:46:37.322Z,12.45
2023-02-11T11:49:19.152Z,10.95
2023-02-11T11:51:56.029Z,13.10
2023-02-11T11:54:27.063Z,11.35
2023-02-11T11:57:03.223Z,14.10
2023-02-11T11:59:33.920Z,15.25
2023-02-11T12:02:21.270Z,12.07
2023-02-11T12:05:09.206Z,12.27
2023-02-11T12:07:52.524Z,10.70
2023-02-11T12:10:48.853Z,13.13
2023-02-11T12:13:34.430Z,10.40
2023-02-11T12:16:17.184Z,14.18
2023-02-11T12:19:24.605Z,11.13
2023-02-11T12:22:07.346Z,14.93
2023-02-11T12:25:01.483Z,15.30
2023-02-11T12:27:48.023Z,14.20
2023-02-11T12:30:35.484Z,14.20
2023-02-11T12:33:17.412Z,13.38
2023-02-11T12:35:57.710Z,11.45
2023-02-11T12:38:41.012Z,10.68
2023-02-11T12:41:43.594Z,11.02
2023-02-11T12:44:25.908Z,10.40
2023-02-11T12:47:04.558Z,12.43
2023-02-11T12:49:54.328Z,14.45
2023-02-11T12:52:37.356Z,10.02
2023-02-11T12:55:16.103Z,16.60
2023-02-11T12:57:48.030Z,12.43
2023-02-11T13:00:22.626Z,11.15
2023-02-11T13:03:00.908Z,13.20
2023-02-11T13:05:38.779Z,12.35
2023-02-11T13:08:17.414Z,18.40
2023-02-11T13:10:52.291Z,12.43
2023-02-11T13:13:26.558Z,12.38
2023-02-11T13:16:01.651Z,9.15
2023-02-11T13:18:48.351Z,8.02
2023-02-11T13:21:39.933Z,14.20
2023-02-11T13:24:23.572Z,16.77
2023-02-11T13:29:41.384Z,13.25
2023-02-11T13:32:13.708Z,9.27
2023-02-11T13:34:59.966Z,13.40
2023-02-11T13:37:34.325Z,10.60
2023-02-11T13:40:06.784Z,14.30
2023-02-11T13:42:51.434Z,7.85
2023-02-11T13:45:31.626Z,10.50
2023-02-11T13:48:04.284Z,9.75
2023-02-11T13:50:39.506Z,9.38
2023-02-11T13:53:10.329Z,9.85
2023-02-11T13:55:41.109Z,12.88
2023-02-11T13:58:40.248Z,14.02
2023-02-11T14:01:10.172Z,9.05
2023-02-11T14:04:37.814Z,10.18
2023-02-11T14:07:46.955Z,10.93
2023-02-11T14:10:52.054Z,8.63
2023-02-11T14:13:28.966Z,17.95
2023-02-11T14:16:09.924Z,8.60
2023-02-11T14:19:00.747Z,9.20
2023-02-11T14:21:36.860Z,13.77
2023-02-11T14:24:44.148Z,9.82
2023-02-11T14:27:23.692Z,13.13
2023-02-11T14:30:27.783Z,12.30
2023-02-11T14:35:40.836Z,13.15
2023-02-11T14:38:20.528Z,14.05
2023-02-11T14:40:56.908Z,10.77
2023-02-11T14:43:30.025Z,9.18
2023-02-11T14:46:04.073Z,9.18
2023-02-11T14:48:36.319Z,12.93
2023-02-11T14:51:11.112Z,10.02
2023-02-11T14:53:45.035Z,10.82
2023-02-11T14:56:20.679Z,18.17
2023-02-11T14:58:53.159Z,10.65
2023-02-11T15:01:30.894Z,10.43
2023-02-11T15:04:01.491Z,9.18
2023-02-11T15:06:35.592Z,12.43
2023-02-11T15:09:09.634Z,14.48
2023-02-11T15:11:44.136Z,14.50
2023-02-11T15:14:25.130Z,12.25
2023-02-11T15:17:01.682Z,11.77
2023-02-11T15:19:35.352Z,17.02
2023-02-11T15:22:06.893Z,11.32
2023-02-11T15:24:39.577Z,8.20
2023-02-11T15:27:14.738Z,13.15
2023-02-11T15:29:46.285Z,16.45
2023-02-11T15:32:21.858Z,12.25
2023-02-11T15:34:53.571Z,9.50
2023-02-11T15:37:25.427Z,10.35
2023-02-11T15:39:56.261Z,11.60
2023-02-11T15:42:27.710Z,11.25
2023-02-11T15:45:12.795Z,16.65
2023-02-11T15:47:49.853Z,12.32
2023-02-11T15:50:23.495Z,9.88
2023-02-11T15:52:55.065Z,12.73
2023-02-11T15:55:26.500Z,15.15
2023-02-11T15:58:00.067Z,16.30
2023-02-11T16:00:37.411Z,12.07
2023-02-11T16:03:21.916Z,15.32
2023-02-11T16:05:52.667Z,11.32
2023-02-11T16:08:25.133Z,18.75
2023-02-11T16:11:09.247Z,10.23
2023-02-11T16:13:47.532Z,11.18
2023-02-11T16:16:21.403Z,15.68
2023-02-11T16:19:04.922Z,11.30
2023-02-11T16:21:43.110Z,9.90
2023-02-11T16:24:21.486Z,12.77
2023-02-11T16:26:54.193Z,14.02
2023-02-11T16:29:27.418Z,12.95
2023-02-11T16:32:08.557Z,11.95
2023-02-11T16:34:39.883Z,9.80
2023-02-11T16:37:09.962Z,19.77
2023-02-11T16:39:39.778Z,15.10
2023-02-11T16:42:12.354Z,13.60
2023-02-11T16:44:42.110Z,15.88
2023-02-11T16:47:21.424Z,9.90
2023-02-11T16:49:52.182Z,12.52
2023-02-11T16:52:23.144Z,11.13
2023-02-11T16:54:52.673Z,18.98
2023-02-11T16:57:29.549Z,13.73
2023-02-11T17:00:00.805Z,22.98
2023-02-11T17:02:32.569Z,12.82
2023-02-11T17:05:05.711Z,17.15
2023-02-11T17:07:35.727Z,12.68
2023-02-11T17:10:05.575Z,15.93
2023-02-11T17:12:35.470Z,13.38
2023-02-11T17:15:07.470Z,17.50
2023-02-11T17:17:37.209Z,12.73
2023-02-11T17:20:09.746Z,14.18
2023-02-11T17:22:39.352Z,15.03
2023-02-11T17:25:09.273Z,15.52
2023-02-11T17:27:38.462Z,14.18
2023-02-11T17:30:12.180Z,17.05
2023-02-11T17:32:45.068Z,12.38
2023-02-11T17:35:16.585Z,14.95
2023-02-11T17:37:46.210Z,12.13
2023-02-11T17:40:16.685Z,16.20
2023-02-11T17:42:45.763Z,10.40
2023-02-11T17:45:20.383Z,12.93
2023-02-11T17:47:51.076Z,17.67
2023-02-11T17:50:21.825Z,12.32
2023-02-11T17:52:51.332Z,13.75
2023-02-11T17:55:20.501Z,13.27
2023-02-11T17:57:49.732Z,11.45
2023-02-11T18:00:19.950Z,17.63
2023-02-11T18:02:51.753Z,15.40
2023-02-11T18:05:24.254Z,11.75
2023-02-11T18:07:53.690Z,20.33
2023-02-11T18:10:23.380Z,18.45
2023-02-11T18:12:52.609Z,13.57
2023-02-11T18:15:24.580Z,15.15
2023-02-11T18:17:54.398Z,17.98
2023-02-11T18:20:25.033Z,19.73
2023-02-11T18:22:54.264Z,16.85
2023-02-11T18:25:23.842Z,16.38
2023-02-11T18:27:55.508Z,16.63
2023-02-11T18:30:26.026Z,14.95
2023-02-11T18:32:56.431Z,14.88
2023-02-11T18:35:26.995Z,21.27
2023-02-11T18:37:56.647Z,19.65
2023-02-11T18:40:25.730Z,14.75
2023-02-11T18:42:54.928Z,13.63
2023-02-11T18:45:24.731Z,14.93
2023-02-11T18:47:54.444Z,15.10
2023-02-11T18:50:23.914Z,12.98
2023-02-11T18:52:54.576Z,14.73
2023-02-11T18:55:25.859Z,16.15
2023-02-11T18:57:55.305Z,23.30
2023-02-11T19:00:24.929Z,13.93
2023-02-11T19:02:54.334Z,20.42
2023-02-11T19:05:23.808Z,21.95
2023-02-11T19:07:54.541Z,16.02
2023-02-11T19:10:24.377Z,19.15
2023-02-11T19:12:56.295Z,14.38
2023-02-11T19:15:26.278Z,15.18
2023-02-11T19:17:58.342Z,16.97
2023-02-11T19:20:27.940Z,17.15
2023-02-11T19:22:58.875Z,17.10
2023-02-11T19:25:28.577Z,18.85
2023-02-11T19:27:57.990Z,26.98
2023-02-11T19:30:27.039Z,21.70
2023-02-11T19:32:57.921Z,22.48
2023-02-11T19:35:27.493Z,22.23
2023-02-11T19:37:57.935Z,22.33
2023-02-11T19:40:27.154Z,19.70
2023-02-11T19:42:56.706Z,20.83
2023-02-11T19:45:27.108Z,21.33
2023-02-11T19:47:57.686Z,18.13
2023-02-11T19:50:27.633Z,19.02
2023-02-11T19:52:58.660Z,19.58
2023-02-11T19:55:27.905Z,19.90
2023-02-11T19:58:00.081Z,18.52
2023-02-11T20:00:29.102Z,19.80
2023-02-11T20:02:58.328Z,19.25
2023-02-11T20:05:27.909Z,19.67
2023-02-11T20:07:59.155Z,18.50
2023-02-11T20:10:28.748Z,20.42
2023-02-11T20:12:58.079Z,22.60
2023-02-11T20:15:28.214Z,20.30
2023-02-11T20:17:57.923Z,22.58
2023-02-11T20:20:27.127Z,24.83
2023-02-11T20:22:57.631Z,16.88
2023-02-11T20:25:28.162Z,20.80
2023-02-11T20:27:57.658Z,20.70
2023-02-11T20:30:27.449Z,19.13
2023-02-11T20:32:58.539Z,21.92
2023-02-11T20:35:28.114Z,20.02
2023-02-11T20:37:58.017Z,21.50
2023-02-11T20:40:28.450Z,16.52
2023-02-11T20:42:57.981Z,19.02
2023-02-11T20:45:27.387Z,20.98
2023-02-11T20:47:57.251Z,27.55
2023-02-11T20:50:26.666Z,19.33
2023-02-11T20:52:56.221Z,21.60
2023-02-11T20:55:25.748Z,24.50
2023-02-11T20:57:56.664Z,21.75
2023-02-11T21:00:26.603Z,20.00
2023-02-11T21:02:55.560Z,17.45
2023-02-11T21:05:27.946Z,19.70
2023-02-11T21:07:57.707Z,18.42
2023-02-11T21:10:27.555Z,24.70
2023-02-11T21:13:00.497Z,25.42
2023-02-11T21:15:29.724Z,20.88
2023-02-11T21:17:59.072Z,33.70
2023-02-11T21:20:28.564Z,29.75
2023-02-11T21:22:58.745Z,19.52
2023-02-11T21:25:28.566Z,24.33
2023-02-11T21:28:03.098Z,18.27
2023-02-11T21:30:35.346Z,18.80
2023-02-11T21:33:05.484Z,17.33
2023-02-11T21:35:35.369Z,19.80
2023-02-11T21:38:05.854Z,23.65
2023-02-11T21:40:35.777Z,23.38
2023-02-11T21:43:06.806Z,23.38
2023-02-11T21:45:36.102Z,20.83
2023-02-11T21:48:06.426Z,18.20
2023-02-11T21:50:36.142Z,17.17
2023-02-11T21:53:07.079Z,20.67
2023-02-11T21:55:37.368Z,19.08
2023-02-11T21:58:09.454Z,19.60
2023-02-11T22:00:39.049Z,22.65
2023-02-11T22:03:11.873Z,22.25
2023-02-11T22:05:42.598Z,23.77
2023-02-11T22:08:12.598Z,36.88
2023-02-11T22:10:45.183Z,24.13
2023-02-11T22:13:18.614Z,20.42
2023-02-11T22:15:58.975Z,23.73
2023-02-11T22:18:30.288Z,26.35
2023-02-11T22:21:01.922Z,23.08
2023-02-11T22:23:32.660Z,21.77
2023-02-11T22:26:05.487Z,23.92
2023-02-11T22:28:38.974Z,25.40
2023-02-11T22:31:09.775Z,26.48
2023-02-11T22:33:39.729Z,21.58
2023-02-11T22:36:14.127Z,27.65
2023-02-11T22:38:44.016Z,22.30
2023-02-11T22:41:14.238Z,24.38
2023-02-11T22:43:46.028Z,21.08
2023-02-11T22:46:18.087Z,17.67
2023-02-11T22:48:49.297Z,21.55
2023-02-11T22:51:21.075Z,22.73
2023-02-11T22:53:52.330Z,20.63
2023-02-11T22:56:22.701Z,20.67
2023-02-11T22:58:54.688Z,17.35
2023-02-11T23:01:24.542Z,18.90
2023-02-11T23:03:54.490Z,24.88
2023-02-11T23:06:24.339Z,20.70
2023-02-11T23:08:55.044Z,30.13
2023-02-11T23:11:27.779Z,22.42
2023-02-11T23:13:59.460Z,22.20
2023-02-11T23:16:31.185Z,16.92
2023-02-11T23:19:02.246Z,21.30
2023-02-11T23:21:33.921Z,18.83
2023-02-11T23:24:06.045Z,19.25
2023-02-11T23:26:36.389Z,24.80
2023-02-11T23:29:08.111Z,23.13
2023-02-11T23:31:40.223Z,20.42
2023-02-11T23:34:10.538Z,27.05
2023-02-11T23:36:40.118Z,32.60
2023-02-11T23:39:09.955Z,25.45
2023-02-11T23:41:39.359Z,20.48
2023-02-11T23:44:12.213Z,21.90
2023-02-11T23:46:42.477Z,19.33
2023-02-11T23:49:12.488Z,21.95
2023-02-11T23:51:42.265Z,23.42
2023-02-11T23:54:14.381Z,20.23
2023-02-11T23:56:44.795Z,23.90
2023-02-11T23:59:17.186Z,22.10
